sensor_id;sensor_type;location;lat;lon;timestamp;temperature;humidity
16287;DHT22;8251;53.568;10.018;2023-03-01T00:01:29;6.70;62.50
16287;DHT22;8251;53.568;10.018;2023-03-01T00:04:03;6.60;63.10
16287;DHT22;8251;53.568;10.018;2023-03-01T00:06:31;6.60;63.70
16287;DHT22;8251;53.568;10.018;2023-03-01T00:09:02;6.50;63.60
16287;DHT22;8251;53.568;10.018;2023-03-01T00:11:34;6.50;62.90
16287;DHT22;8251;53.568;10.018;2023-03-01T00:14:04;6.50;63.50
16287;DHT22;8251;53.568;10.018;2023-03-01T00:16:35;6.50;63.30
16287;DHT22;8251;53.568;10.018;2023-03-01T00:19:15;6.40;63.40
16287;DHT22;8251;53.568;10.018;2023-03-01T00:21:50;6.40;63.50
16287;DHT22;8251;53.568;10.018;2023-03-01T00:24:19;6.50;63.50
16287;DHT22;8251;53.568;10.018;2023-03-01T00:26:48;6.50;63.30
16287;DHT22;8251;53.568;10.018;2023-03-01T00:29:17;6.50;63.60
16287;DHT22;8251;53.568;10.018;2023-03-01T00:31:48;6.50;64.10
16287;DHT22;8251;53.568;10.018;2023-03-01T00:34:20;6.50;64.10
16287;DHT22;8251;53.568;10.018;2023-03-01T00:36:51;6.50;63.90
16287;DHT22;8251;53.568;10.018;2023-03-01T00:39:19;6.50;64.00
16287;DHT22;8251;53.568;10.018;2023-03-01T00:41:49;6.50;64.00
16287;DHT22;8251;53.568;10.018;2023-03-01T00:44:22;6.40;64.10
16287;DHT22;8251;53.568;10.018;2023-03-01T00:46:52;6.50;64.10
16287;DHT22;8251;53.568;10.018;2023-03-01T00:49:28;6.50;64.10
16287;DHT22;8251;53.568;10.018;2023-03-01T00:51:57;6.40;63.30
16287;DHT22;8251;53.568;10.018;2023-03-01T00:54:47;6.40;63.30
16287;DHT22;8251;53.568;10.018;2023-03-01T00:57:17;6.40;63.90
16287;DHT22;8251;53.568;10.018;2023-03-01T00:59:48;6.30;64.50
16287;DHT22;8251;53.568;10.018;2023-03-01T01:02:17;6.30;64.50
16287;DHT22;8251;53.568;10.018;2023-03-01T01:04:51;6.30;65.40
16287;DHT22;8251;53.568;10.018;2023-03-01T01:07:20;6.20;65.50
16287;DHT22;8251;53.568;10.018;2023-03-01T01:09:50;6.20;65.70
16287;DHT22;8251;53.568;10.018;2023-03-01T01:12:21;6.20;65.90
16287;DHT22;8251;53.568;10.018;2023-03-01T01:14:52;6.20;65.90
16287;DHT22;8251;53.568;10.018;2023-03-01T01:17:21;6.20;66.10
16287;DHT22;8251;53.568;10.018;2023-03-01T01:19:53;6.20;66.30
16287;DHT22;8251;53.568;10.018;2023-03-01T01:22:21;6.20;66.50
16287;DHT22;8251;53.568;10.018;2023-03-01T01:24:51;6.20;66.50
16287;DHT22;8251;53.568;10.018;2023-03-01T01:27:22;6.20;66.60
16287;DHT22;8251;53.568;10.018;2023-03-01T01:29:49;6.20;66.60
16287;DHT22;8251;53.568;10.018;2023-03-01T01:32:31;6.20;66.80
16287;DHT22;8251;53.568;10.018;2023-03-01T01:35:01;6.20;66.90
16287;DHT22;8251;53.568;10.018;2023-03-01T01:37:31;6.10;66.90
16287;DHT22;8251;53.568;10.018;2023-03-01T01:40:02;6.20;67.00
16287;DHT22;8251;53.568;10.018;2023-03-01T01:42:38;6.10;67.10
16287;DHT22;8251;53.568;10.018;2023-03-01T01:45:32;6.10;67.20
16287;DHT22;8251;53.568;10.018;2023-03-01T01:48:19;6.10;67.20
16287;DHT22;8251;53.568;10.018;2023-03-01T01:50:58;6.10;67.40
16287;DHT22;8251;53.568;10.018;2023-03-01T01:53:28;6.10;67.70
16287;DHT22;8251;53.568;10.018;2023-03-01T01:56:02;6.10;68.10
16287;DHT22;8251;53.568;10.018;2023-03-01T01:58:35;6.10;68.30
16287;DHT22;8251;53.568;10.018;2023-03-01T02:01:07;6.10;68.50
16287;DHT22;8251;53.568;10.018;2023-03-01T02:03:42;6.10;68.70
16287;DHT22;8251;53.568;10.018;2023-03-01T02:06:21;6.10;68.70
16287;DHT22;8251;53.568;10.018;2023-03-01T02:08:50;6.10;68.70
16287;DHT22;8251;53.568;10.018;2023-03-01T02:11:23;6.20;68.80
16287;DHT22;8251;53.568;10.018;2023-03-01T02:14:05;6.20;68.80
16287;DHT22;8251;53.568;10.018;2023-03-01T02:16:35;6.20;68.90
16287;DHT22;8251;53.568;10.018;2023-03-01T02:19:05;6.20;69.00
16287;DHT22;8251;53.568;10.018;2023-03-01T02:21:48;6.30;68.90
16287;DHT22;8251;53.568;10.018;2023-03-01T02:24:28;6.20;68.80
16287;DHT22;8251;53.568;10.018;2023-03-01T02:27:05;6.20;69.00
16287;DHT22;8251;53.568;10.018;2023-03-01T02:29:34;6.20;69.20
16287;DHT22;8251;53.568;10.018;2023-03-01T02:32:10;6.20;69.40
16287;DHT22;8251;53.568;10.018;2023-03-01T02:34:38;6.20;69.20
16287;DHT22;8251;53.568;10.018;2023-03-01T02:37:18;6.20;68.40
16287;DHT22;8251;53.568;10.018;2023-03-01T02:39:58;6.20;68.90
16287;DHT22;8251;53.568;10.018;2023-03-01T02:42:31;6.20;69.10
16287;DHT22;8251;53.568;10.018;2023-03-01T02:45:08;6.20;69.40
16287;DHT22;8251;53.568;10.018;2023-03-01T02:47:37;6.20;70.10
16287;DHT22;8251;53.568;10.018;2023-03-01T02:50:21;6.20;69.00
16287;DHT22;8251;53.568;10.018;2023-03-01T02:52:57;6.20;69.00
16287;DHT22;8251;53.568;10.018;2023-03-01T02:55:29;6.30;69.20
16287;DHT22;8251;53.568;10.018;2023-03-01T02:57:57;6.30;69.10
16287;DHT22;8251;53.568;10.018;2023-03-01T03:00:39;6.30;69.00
16287;DHT22;8251;53.568;10.018;2023-03-01T03:03:15;6.40;68.40
16287;DHT22;8251;53.568;10.018;2023-03-01T03:05:47;6.40;67.60
16287;DHT22;8251;53.568;10.018;2023-03-01T03:08:18;6.40;66.80
16287;DHT22;8251;53.568;10.018;2023-03-01T03:10:50;6.40;66.80
16287;DHT22;8251;53.568;10.018;2023-03-01T03:13:26;6.40;66.60
16287;DHT22;8251;53.568;10.018;2023-03-01T03:16:02;6.40;66.60
16287;DHT22;8251;53.568;10.018;2023-03-01T03:18:32;6.40;66.20
16287;DHT22;8251;53.568;10.018;2023-03-01T03:21:03;6.40;65.90
16287;DHT22;8251;53.568;10.018;2023-03-01T03:23:39;6.40;65.50
16287;DHT22;8251;53.568;10.018;2023-03-01T03:26:09;6.40;65.10
16287;DHT22;8251;53.568;10.018;2023-03-01T03:28:39;6.40;65.00
16287;DHT22;8251;53.568;10.018;2023-03-01T03:31:13;6.40;65.30
16287;DHT22;8251;53.568;10.018;2023-03-01T03:33:40;6.40;65.40
16287;DHT22;8251;53.568;10.018;2023-03-01T03:36:09;6.40;65.30
16287;DHT22;8251;53.568;10.018;2023-03-01T03:38:45;6.40;64.70
16287;DHT22;8251;53.568;10.018;2023-03-01T03:41:16;6.40;64.70
16287;DHT22;8251;53.568;10.018;2023-03-01T03:43:49;6.40;64.50
16287;DHT22;8251;53.568;10.018;2023-03-01T03:46:20;6.40;64.40
16287;DHT22;8251;53.568;10.018;2023-03-01T03:48:49;6.40;64.10
16287;DHT22;8251;53.568;10.018;2023-03-01T03:51:18;6.40;63.60
16287;DHT22;8251;53.568;10.018;2023-03-01T03:53:48;6.40;63.20
16287;DHT22;8251;53.568;10.018;2023-03-01T03:56:19;6.40;62.70
16287;DHT22;8251;53.568;10.018;2023-03-01T03:58:47;6.40;62.50
16287;DHT22;8251;53.568;10.018;2023-03-01T04:01:17;6.50;62.20
16287;DHT22;8251;53.568;10.018;2023-03-01T04:03:55;6.50;62.00
16287;DHT22;8251;53.568;10.018;2023-03-01T04:06:25;6.50;61.90
16287;DHT22;8251;53.568;10.018;2023-03-01T04:08:53;6.50;61.60
16287;DHT22;8251;53.568;10.018;2023-03-01T04:11:25;6.60;61.60
16287;DHT22;8251;53.568;10.018;2023-03-01T04:13:57;6.60;61.50
16287;DHT22;8251;53.568;10.018;2023-03-01T04:16:31;6.60;61.50
16287;DHT22;8251;53.568;10.018;2023-03-01T04:19:07;6.60;61.50
16287;DHT22;8251;53.568;10.018;2023-03-01T04:21:36;6.60;61.40
16287;DHT22;8251;53.568;10.018;2023-03-01T04:24:12;6.40;61.20
16287;DHT22;8251;53.568;10.018;2023-03-01T04:26:49;6.60;61.40
16287;DHT22;8251;53.568;10.018;2023-03-01T04:29:16;6.60;61.40
16287;DHT22;8251;53.568;10.018;2023-03-01T04:31:45;6.60;61.20
16287;DHT22;8251;53.568;10.018;2023-03-01T04:34:18;6.70;61.20
16287;DHT22;8251;53.568;10.018;2023-03-01T04:36:47;6.70;61.00
16287;DHT22;8251;53.568;10.018;2023-03-01T04:39:18;6.70;60.70
16287;DHT22;8251;53.568;10.018;2023-03-01T04:41:48;6.70;60.90
16287;DHT22;8251;53.568;10.018;2023-03-01T04:44:16;6.70;60.70
16287;DHT22;8251;53.568;10.018;2023-03-01T04:46:48;6.70;60.30
16287;DHT22;8251;53.568;10.018;2023-03-01T04:49:23;6.80;60.40
16287;DHT22;8251;53.568;10.018;2023-03-01T04:52:07;6.80;60.50
16287;DHT22;8251;53.568;10.018;2023-03-01T04:54:36;6.80;60.50
16287;DHT22;8251;53.568;10.018;2023-03-01T04:57:10;6.80;60.40
16287;DHT22;8251;53.568;10.018;2023-03-01T04:59:38;6.80;60.30
16287;DHT22;8251;53.568;10.018;2023-03-01T05:02:10;6.80;60.80
16287;DHT22;8251;53.568;10.018;2023-03-01T05:04:44;6.80;60.20
16287;DHT22;8251;53.568;10.018;2023-03-01T05:07:12;6.90;59.90
16287;DHT22;8251;53.568;10.018;2023-03-01T05:09:47;6.90;60.10
16287;DHT22;8251;53.568;10.018;2023-03-01T05:12:17;6.90;60.50
16287;DHT22;8251;53.568;10.018;2023-03-01T05:14:50;6.90;60.50
16287;DHT22;8251;53.568;10.018;2023-03-01T05:17:21;6.90;60.30
16287;DHT22;8251;53.568;10.018;2023-03-01T05:19:58;6.90;60.50
16287;DHT22;8251;53.568;10.018;2023-03-01T05:22:29;6.90;60.50
16287;DHT22;8251;53.568;10.018;2023-03-01T05:24:58;7.00;60.30
16287;DHT22;8251;53.568;10.018;2023-03-01T05:27:29;6.90;60.10
16287;DHT22;8251;53.568;10.018;2023-03-01T05:30:01;7.00;60.20
16287;DHT22;8251;53.568;10.018;2023-03-01T05:32:42;6.90;60.00
16287;DHT22;8251;53.568;10.018;2023-03-01T05:35:19;6.90;60.10
16287;DHT22;8251;53.568;10.018;2023-03-01T05:37:53;6.90;60.30
16287;DHT22;8251;53.568;10.018;2023-03-01T05:40:23;6.90;60.20
16287;DHT22;8251;53.568;10.018;2023-03-01T05:42:59;6.90;60.90
16287;DHT22;8251;53.568;10.018;2023-03-01T05:45:35;7.00;60.70
16287;DHT22;8251;53.568;10.018;2023-03-01T05:48:06;6.90;60.30
16287;DHT22;8251;53.568;10.018;2023-03-01T05:50:40;7.00;60.70
16287;DHT22;8251;53.568;10.018;2023-03-01T05:53:11;7.00;60.40
16287;DHT22;8251;53.568;10.018;2023-03-01T05:55:38;7.10;60.50
16287;DHT22;8251;53.568;10.018;2023-03-01T05:58:07;7.00;60.70
16287;DHT22;8251;53.568;10.018;2023-03-01T06:00:35;7.00;60.80
16287;DHT22;8251;53.568;10.018;2023-03-01T06:03:03;7.00;60.90
16287;DHT22;8251;53.568;10.018;2023-03-01T06:05:30;7.00;61.00
16287;DHT22;8251;53.568;10.018;2023-03-01T06:08:00;7.00;61.10
16287;DHT22;8251;53.568;10.018;2023-03-01T06:10:28;7.00;61.00
16287;DHT22;8251;53.568;10.018;2023-03-01T06:12:55;7.00;61.10
16287;DHT22;8251;53.568;10.018;2023-03-01T06:15:23;7.00;61.20
16287;DHT22;8251;53.568;10.018;2023-03-01T06:17:51;7.00;61.40
16287;DHT22;8251;53.568;10.018;2023-03-01T06:20:19;7.00;61.70
16287;DHT22;8251;53.568;10.018;2023-03-01T06:22:51;7.00;61.90
16287;DHT22;8251;53.568;10.018;2023-03-01T06:25:33;7.10;62.10
16287;DHT22;8251;53.568;10.018;2023-03-01T06:28:00;7.10;62.20
16287;DHT22;8251;53.568;10.018;2023-03-01T06:30:30;7.00;62.40
16287;DHT22;8251;53.568;10.018;2023-03-01T06:32:57;7.00;62.50
16287;DHT22;8251;53.568;10.018;2023-03-01T06:35:28;7.00;62.50
16287;DHT22;8251;53.568;10.018;2023-03-01T06:37:56;7.00;62.30
16287;DHT22;8251;53.568;10.018;2023-03-01T06:40:28;7.00;62.00
16287;DHT22;8251;53.568;10.018;2023-03-01T06:42:58;7.00;61.90
16287;DHT22;8251;53.568;10.018;2023-03-01T06:45:24;7.00;61.60
16287;DHT22;8251;53.568;10.018;2023-03-01T06:47:56;7.10;61.60
16287;DHT22;8251;53.568;10.018;2023-03-01T06:50:28;7.10;61.50
16287;DHT22;8251;53.568;10.018;2023-03-01T06:52:56;7.10;61.50
16287;DHT22;8251;53.568;10.018;2023-03-01T06:55:24;7.10;61.40
16287;DHT22;8251;53.568;10.018;2023-03-01T06:57:54;7.20;62.10
16287;DHT22;8251;53.568;10.018;2023-03-01T07:00:25;7.20;61.00
16287;DHT22;8251;53.568;10.018;2023-03-01T07:02:53;7.20;60.70
16287;DHT22;8251;53.568;10.018;2023-03-01T07:05:20;7.20;60.60
16287;DHT22;8251;53.568;10.018;2023-03-01T07:07:47;7.20;60.50
16287;DHT22;8251;53.568;10.018;2023-03-01T07:10:16;7.20;60.50
16287;DHT22;8251;53.568;10.018;2023-03-01T07:12:45;7.20;60.40
16287;DHT22;8251;53.568;10.018;2023-03-01T07:15:11;7.30;60.40
16287;DHT22;8251;53.568;10.018;2023-03-01T07:17:43;7.30;60.30
16287;DHT22;8251;53.568;10.018;2023-03-01T07:20:13;7.30;60.20
16287;DHT22;8251;53.568;10.018;2023-03-01T07:22:41;7.30;60.40
16287;DHT22;8251;53.568;10.018;2023-03-01T07:25:09;7.40;60.50
16287;DHT22;8251;53.568;10.018;2023-03-01T07:27:39;7.40;60.50
16287;DHT22;8251;53.568;10.018;2023-03-01T07:30:08;7.40;60.50
16287;DHT22;8251;53.568;10.018;2023-03-01T07:32:35;7.50;60.60
16287;DHT22;8251;53.568;10.018;2023-03-01T07:35:04;7.50;60.40
16287;DHT22;8251;53.568;10.018;2023-03-01T07:37:33;7.50;60.30
16287;DHT22;8251;53.568;10.018;2023-03-01T07:40:00;7.50;60.10
16287;DHT22;8251;53.568;10.018;2023-03-01T07:42:27;7.60;59.80
16287;DHT22;8251;53.568;10.018;2023-03-01T07:44:54;7.50;59.40
16287;DHT22;8251;53.568;10.018;2023-03-01T07:47:24;7.60;59.80
16287;DHT22;8251;53.568;10.018;2023-03-01T07:49:52;7.70;59.60
16287;DHT22;8251;53.568;10.018;2023-03-01T07:52:20;7.60;59.40
16287;DHT22;8251;53.568;10.018;2023-03-01T07:54:48;7.70;59.50
16287;DHT22;8251;53.568;10.018;2023-03-01T07:57:15;7.80;59.50
16287;DHT22;8251;53.568;10.018;2023-03-01T07:59:44;7.90;59.70
16287;DHT22;8251;53.568;10.018;2023-03-01T08:02:12;8.00;59.80
16287;DHT22;8251;53.568;10.018;2023-03-01T08:04:40;8.10;59.70
16287;DHT22;8251;53.568;10.018;2023-03-01T08:07:07;8.20;59.70
16287;DHT22;8251;53.568;10.018;2023-03-01T08:09:37;8.30;59.80
16287;DHT22;8251;53.568;10.018;2023-03-01T08:12:05;8.30;59.70
16287;DHT22;8251;53.568;10.018;2023-03-01T08:14:32;8.40;59.60
16287;DHT22;8251;53.568;10.018;2023-03-01T08:17:01;8.40;59.40
16287;DHT22;8251;53.568;10.018;2023-03-01T08:19:33;8.40;59.90
16287;DHT22;8251;53.568;10.018;2023-03-01T08:22:01;8.20;60.00
16287;DHT22;8251;53.568;10.018;2023-03-01T08:24:29;8.40;60.20
16287;DHT22;8251;53.568;10.018;2023-03-01T08:26:59;8.40;59.80
16287;DHT22;8251;53.568;10.018;2023-03-01T08:29:28;8.40;60.10
16287;DHT22;8251;53.568;10.018;2023-03-01T08:31:56;8.50;60.00
16287;DHT22;8251;53.568;10.018;2023-03-01T08:34:25;8.60;59.80
16287;DHT22;8251;53.568;10.018;2023-03-01T08:36:52;8.80;59.80
16287;DHT22;8251;53.568;10.018;2023-03-01T08:39:20;8.90;59.80
16287;DHT22;8251;53.568;10.018;2023-03-01T08:41:47;9.00;59.50
16287;DHT22;8251;53.568;10.018;2023-03-01T08:44:16;9.10;59.80
16287;DHT22;8251;53.568;10.018;2023-03-01T08:46:44;9.30;59.40
16287;DHT22;8251;53.568;10.018;2023-03-01T08:49:13;9.40;59.10
16287;DHT22;8251;53.568;10.018;2023-03-01T08:51:42;9.70;59.60
16287;DHT22;8251;53.568;10.018;2023-03-01T08:54:12;10.00;58.80
16287;DHT22;8251;53.568;10.018;2023-03-01T08:56:42;10.30;58.40
16287;DHT22;8251;53.568;10.018;2023-03-01T08:59:10;10.60;57.90
16287;DHT22;8251;53.568;10.018;2023-03-01T09:01:39;10.80;56.30
16287;DHT22;8251;53.568;10.018;2023-03-01T09:04:09;10.70;56.60
16287;DHT22;8251;53.568;10.018;2023-03-01T09:06:37;10.60;57.10
16287;DHT22;8251;53.568;10.018;2023-03-01T09:09:05;10.50;57.40
16287;DHT22;8251;53.568;10.018;2023-03-01T09:11:33;10.40;57.70
16287;DHT22;8251;53.568;10.018;2023-03-01T09:14:00;10.30;58.20
16287;DHT22;8251;53.568;10.018;2023-03-01T09:16:29;10.20;58.40
16287;DHT22;8251;53.568;10.018;2023-03-01T09:19:03;10.10;58.50
16287;DHT22;8251;53.568;10.018;2023-03-01T09:21:30;10.00;58.70
16287;DHT22;8251;53.568;10.018;2023-03-01T09:23:59;9.90;58.90
16287;DHT22;8251;53.568;10.018;2023-03-01T09:26:28;9.90;59.30
16287;DHT22;8251;53.568;10.018;2023-03-01T09:28:58;9.90;59.50
16287;DHT22;8251;53.568;10.018;2023-03-01T09:31:25;9.90;59.70
16287;DHT22;8251;53.568;10.018;2023-03-01T09:33:53;9.90;59.70
16287;DHT22;8251;53.568;10.018;2023-03-01T09:36:23;9.90;59.60
16287;DHT22;8251;53.568;10.018;2023-03-01T09:38:51;9.80;59.70
16287;DHT22;8251;53.568;10.018;2023-03-01T09:41:32;9.90;59.90
16287;DHT22;8251;53.568;10.018;2023-03-01T09:44:04;9.90;59.90
16287;DHT22;8251;53.568;10.018;2023-03-01T09:46:39;10.00;60.90
16287;DHT22;8251;53.568;10.018;2023-03-01T09:49:10;10.10;60.00
16287;DHT22;8251;53.568;10.018;2023-03-01T09:51:42;10.20;59.80
16287;DHT22;8251;53.568;10.018;2023-03-01T09:54:11;10.40;59.80
16287;DHT22;8251;53.568;10.018;2023-03-01T09:56:42;10.80;58.60
16287;DHT22;8251;53.568;10.018;2023-03-01T09:59:21;11.10;58.30
16287;DHT22;8251;53.568;10.018;2023-03-01T10:01:53;11.50;57.60
16287;DHT22;8251;53.568;10.018;2023-03-01T10:04:39;11.80;56.70
16287;DHT22;8251;53.568;10.018;2023-03-01T10:07:21;11.90;56.10
16287;DHT22;8251;53.568;10.018;2023-03-01T10:09:53;12.00;56.20
16287;DHT22;8251;53.568;10.018;2023-03-01T10:12:22;12.10;56.20
16287;DHT22;8251;53.568;10.018;2023-03-01T10:14:55;12.20;55.70
16287;DHT22;8251;53.568;10.018;2023-03-01T10:17:32;12.20;56.10
16287;DHT22;8251;53.568;10.018;2023-03-01T10:20:15;12.40;56.20
16287;DHT22;8251;53.568;10.018;2023-03-01T10:22:46;12.50;56.00
16287;DHT22;8251;53.568;10.018;2023-03-01T10:25:19;12.50;55.90
16287;DHT22;8251;53.568;10.018;2023-03-01T10:27:52;12.60;56.30
16287;DHT22;8251;53.568;10.018;2023-03-01T10:30:30;12.80;56.10
16287;DHT22;8251;53.568;10.018;2023-03-01T10:32:59;12.90;56.10
16287;DHT22;8251;53.568;10.018;2023-03-01T10:35:29;13.10;55.80
16287;DHT22;8251;53.568;10.018;2023-03-01T10:38:05;13.30;55.70
16287;DHT22;8251;53.568;10.018;2023-03-01T10:40:34;13.40;55.30
16287;DHT22;8251;53.568;10.018;2023-03-01T10:43:03;13.60;55.40
16287;DHT22;8251;53.568;10.018;2023-03-01T10:45:34;13.60;54.80
16287;DHT22;8251;53.568;10.018;2023-03-01T10:48:13;13.40;55.10
16287;DHT22;8251;53.568;10.018;2023-03-01T10:50:48;13.40;55.30
16287;DHT22;8251;53.568;10.018;2023-03-01T10:53:35;13.30;55.70
16287;DHT22;8251;53.568;10.018;2023-03-01T10:56:06;13.20;55.70
16287;DHT22;8251;53.568;10.018;2023-03-01T10:58:36;13.10;56.10
16287;DHT22;8251;53.568;10.018;2023-03-01T11:01:08;13.10;56.10
16287;DHT22;8251;53.568;10.018;2023-03-01T11:04:10;13.00;56.30
16287;DHT22;8251;53.568;10.018;2023-03-01T11:06:39;12.80;56.70
16287;DHT22;8251;53.568;10.018;2023-03-01T11:09:17;12.70;57.20
16287;DHT22;8251;53.568;10.018;2023-03-01T11:11:45;12.70;57.40
16287;DHT22;8251;53.568;10.018;2023-03-01T11:14:16;12.70;57.60
16287;DHT22;8251;53.568;10.018;2023-03-01T11:16:45;12.60;57.70
16287;DHT22;8251;53.568;10.018;2023-03-01T11:19:19;12.60;58.00
16287;DHT22;8251;53.568;10.018;2023-03-01T11:21:58;12.70;58.10
16287;DHT22;8251;53.568;10.018;2023-03-01T11:24:37;12.70;58.20
16287;DHT22;8251;53.568;10.018;2023-03-01T11:27:18;12.70;58.40
16287;DHT22;8251;53.568;10.018;2023-03-01T11:29:50;12.70;58.50
16287;DHT22;8251;53.568;10.018;2023-03-01T11:32:24;12.80;58.50
16287;DHT22;8251;53.568;10.018;2023-03-01T11:34:56;12.90;58.40
16287;DHT22;8251;53.568;10.018;2023-03-01T11:37:33;13.10;58.20
16287;DHT22;8251;53.568;10.018;2023-03-01T11:40:14;13.10;58.20
16287;DHT22;8251;53.568;10.018;2023-03-01T11:42:49;13.30;58.30
16287;DHT22;8251;53.568;10.018;2023-03-01T11:45:22;13.40;57.90
16287;DHT22;8251;53.568;10.018;2023-03-01T11:48:01;13.50;57.70
16287;DHT22;8251;53.568;10.018;2023-03-01T11:50:38;13.60;57.00
16287;DHT22;8251;53.568;10.018;2023-03-01T11:53:31;13.70;57.30
16287;DHT22;8251;53.568;10.018;2023-03-01T11:56:08;13.90;57.50
16287;DHT22;8251;53.568;10.018;2023-03-01T11:58:55;14.00;57.60
16287;DHT22;8251;53.568;10.018;2023-03-01T12:01:48;14.20;57.10
16287;DHT22;8251;53.568;10.018;2023-03-01T12:04:46;14.30;56.10
16287;DHT22;8251;53.568;10.018;2023-03-01T12:07:23;14.40;56.50
16287;DHT22;8251;53.568;10.018;2023-03-01T12:10:20;14.60;56.30
16287;DHT22;8251;53.568;10.018;2023-03-01T12:13:09;14.90;55.60
16287;DHT22;8251;53.568;10.018;2023-03-01T12:15:56;15.00;55.60
16287;DHT22;8251;53.568;10.018;2023-03-01T12:19:05;15.30;54.70
16287;DHT22;8251;53.568;10.018;2023-03-01T12:21:46;15.50;53.70
16287;DHT22;8251;53.568;10.018;2023-03-01T12:24:32;15.60;53.20
16287;DHT22;8251;53.568;10.018;2023-03-01T12:27:23;15.70;52.70
16287;DHT22;8251;53.568;10.018;2023-03-01T12:30:00;15.70;52.90
16287;DHT22;8251;53.568;10.018;2023-03-01T12:32:42;15.70;53.10
16287;DHT22;8251;53.568;10.018;2023-03-01T12:35:33;15.90;52.20
16287;DHT22;8251;53.568;10.018;2023-03-01T12:38:18;15.80;51.70
16287;DHT22;8251;53.568;10.018;2023-03-01T12:41:17;15.80;51.80
16287;DHT22;8251;53.568;10.018;2023-03-01T12:44:01;15.90;52.00
16287;DHT22;8251;53.568;10.018;2023-03-01T12:46:51;16.00;51.90
16287;DHT22;8251;53.568;10.018;2023-03-01T12:49:24;16.20;51.60
16287;DHT22;8251;53.568;10.018;2023-03-01T12:51:58;16.30;51.50
16287;DHT22;8251;53.568;10.018;2023-03-01T12:54:29;16.40;51.10
16287;DHT22;8251;53.568;10.018;2023-03-01T12:57:03;16.50;50.90
16287;DHT22;8251;53.568;10.018;2023-03-01T12:59:39;16.60;50.50
16287;DHT22;8251;53.568;10.018;2023-03-01T13:02:16;16.60;50.30
16287;DHT22;8251;53.568;10.018;2023-03-01T13:04:54;16.60;50.10
16287;DHT22;8251;53.568;10.018;2023-03-01T13:07:29;16.50;50.50
16287;DHT22;8251;53.568;10.018;2023-03-01T13:10:08;16.40;50.80
16287;DHT22;8251;53.568;10.018;2023-03-01T13:12:51;16.30;51.00
16287;DHT22;8251;53.568;10.018;2023-03-01T13:15:37;16.20;51.60
16287;DHT22;8251;53.568;10.018;2023-03-01T13:18:30;16.10;51.90
16287;DHT22;8251;53.568;10.018;2023-03-01T13:21:01;16.10;51.30
16287;DHT22;8251;53.568;10.018;2023-03-01T13:23:32;15.90;51.70
16287;DHT22;8251;53.568;10.018;2023-03-01T13:26:06;15.70;52.10
16287;DHT22;8251;53.568;10.018;2023-03-01T13:28:55;15.60;52.50
16287;DHT22;8251;53.568;10.018;2023-03-01T13:34:53;15.50;53.60
16287;DHT22;8251;53.568;10.018;2023-03-01T13:37:35;15.50;54.10
16287;DHT22;8251;53.568;10.018;2023-03-01T13:43:31;15.30;53.80
16287;DHT22;8251;53.568;10.018;2023-03-01T13:46:00;15.20;53.80
16287;DHT22;8251;53.568;10.018;2023-03-01T13:48:30;15.10;53.90
16287;DHT22;8251;53.568;10.018;2023-03-01T13:51:02;14.90;54.30
16287;DHT22;8251;53.568;10.018;2023-03-01T13:53:32;14.90;54.60
16287;DHT22;8251;53.568;10.018;2023-03-01T13:56:02;14.80;55.10
16287;DHT22;8251;53.568;10.018;2023-03-01T13:58:33;14.80;55.20
16287;DHT22;8251;53.568;10.018;2023-03-01T14:01:03;14.80;55.00
16287;DHT22;8251;53.568;10.018;2023-03-01T14:03:32;14.80;54.80
16287;DHT22;8251;53.568;10.018;2023-03-01T14:06:08;14.70;55.20
16287;DHT22;8251;53.568;10.018;2023-03-01T14:08:36;14.70;55.50
16287;DHT22;8251;53.568;10.018;2023-03-01T14:14:37;14.40;55.60
16287;DHT22;8251;53.568;10.018;2023-03-01T14:17:22;14.30;56.30
16287;DHT22;8251;53.568;10.018;2023-03-01T14:19:58;14.20;56.80
16287;DHT22;8251;53.568;10.018;2023-03-01T14:22:30;14.20;56.80
16287;DHT22;8251;53.568;10.018;2023-03-01T14:25:03;14.10;56.70
16287;DHT22;8251;53.568;10.018;2023-03-01T14:27:37;14.00;56.80
16287;DHT22;8251;53.568;10.018;2023-03-01T14:30:15;13.90;56.70
16287;DHT22;8251;53.568;10.018;2023-03-01T14:32:52;13.70;56.30
16287;DHT22;8251;53.568;10.018;2023-03-01T14:35:23;13.60;56.70
16287;DHT22;8251;53.568;10.018;2023-03-01T14:37:53;13.50;57.30
16287;DHT22;8251;53.568;10.018;2023-03-01T14:40:27;13.50;57.60
16287;DHT22;8251;53.568;10.018;2023-03-01T14:42:58;13.40;57.50
16287;DHT22;8251;53.568;10.018;2023-03-01T14:45:28;13.40;57.60
16287;DHT22;8251;53.568;10.018;2023-03-01T14:47:59;13.40;57.60
16287;DHT22;8251;53.568;10.018;2023-03-01T14:50:30;13.30;57.80
16287;DHT22;8251;53.568;10.018;2023-03-01T14:53:03;13.30;57.90
16287;DHT22;8251;53.568;10.018;2023-03-01T14:55:33;13.30;57.90
16287;DHT22;8251;53.568;10.018;2023-03-01T14:58:03;13.20;58.20
16287;DHT22;8251;53.568;10.018;2023-03-01T15:00:32;13.30;58.20
16287;DHT22;8251;53.568;10.018;2023-03-01T15:03:07;13.20;58.20
16287;DHT22;8251;53.568;10.018;2023-03-01T15:05:35;13.10;58.30
16287;DHT22;8251;53.568;10.018;2023-03-01T15:08:16;13.10;58.50
16287;DHT22;8251;53.568;10.018;2023-03-01T15:10:58;13.20;58.40
16287;DHT22;8251;53.568;10.018;2023-03-01T15:13:29;13.10;58.10
16287;DHT22;8251;53.568;10.018;2023-03-01T15:16:04;13.10;58.20
16287;DHT22;8251;53.568;10.018;2023-03-01T15:18:32;13.10;57.70
16287;DHT22;8251;53.568;10.018;2023-03-01T15:21:08;13.10;57.70
16287;DHT22;8251;53.568;10.018;2023-03-01T15:23:38;13.00;57.60
16287;DHT22;8251;53.568;10.018;2023-03-01T15:26:16;12.90;57.80
16287;DHT22;8251;53.568;10.018;2023-03-01T15:28:51;12.90;58.10
16287;DHT22;8251;53.568;10.018;2023-03-01T15:31:22;12.90;57.90
16287;DHT22;8251;53.568;10.018;2023-03-01T15:33:50;12.80;57.40
16287;DHT22;8251;53.568;10.018;2023-03-01T15:36:32;12.80;57.50
16287;DHT22;8251;53.568;10.018;2023-03-01T15:39:02;12.90;57.70
16287;DHT22;8251;53.568;10.018;2023-03-01T15:41:32;12.90;57.90
16287;DHT22;8251;53.568;10.018;2023-03-01T15:44:15;12.90;58.00
16287;DHT22;8251;53.568;10.018;2023-03-01T15:46:46;12.80;57.70
16287;DHT22;8251;53.568;10.018;2023-03-01T15:49:27;12.80;57.80
16287;DHT22;8251;53.568;10.018;2023-03-01T15:51:57;12.70;57.90
16287;DHT22;8251;53.568;10.018;2023-03-01T15:54:26;12.70;58.10
16287;DHT22;8251;53.568;10.018;2023-03-01T15:56:55;12.60;58.10
16287;DHT22;8251;53.568;10.018;2023-03-01T15:59:23;12.60;57.80
16287;DHT22;8251;53.568;10.018;2023-03-01T16:01:50;12.60;57.40
16287;DHT22;8251;53.568;10.018;2023-03-01T16:04:18;12.50;57.70
16287;DHT22;8251;53.568;10.018;2023-03-01T16:06:51;12.60;57.90
16287;DHT22;8251;53.568;10.018;2023-03-01T16:09:21;12.50;57.30
16287;DHT22;8251;53.568;10.018;2023-03-01T16:11:58;12.50;56.40
16287;DHT22;8251;53.568;10.018;2023-03-01T16:14:26;12.40;56.00
16287;DHT22;8251;53.568;10.018;2023-03-01T16:16:54;12.30;55.40
16287;DHT22;8251;53.568;10.018;2023-03-01T16:19:21;12.20;55.40
16287;DHT22;8251;53.568;10.018;2023-03-01T16:21:51;12.00;55.30
16287;DHT22;8251;53.568;10.018;2023-03-01T16:24:20;11.90;55.00
16287;DHT22;8251;53.568;10.018;2023-03-01T16:26:48;11.80;55.20